Terminal Aerodrome Forecast
Issued by NWS

Current Version | Previous Version | Graphics & Text | Print | Product List | Glossary On
Versions: 1 2 3 4 5 6 7 8 9 10 11 12 13 14 15 16 17 18 19 20 21 22 23 24 25 26 27 28 29 30 31 32 33
000
FTUS41 KRNK 261139
TAFLWB
TAF
KLWB 261139Z 2612/2712 00000KT 1/2SM FG VV002
     FM261330 00000KT 6SM HZ BKN035 BKN250
     FM261500 VRB03KT P6SM SCT050 SCT250
     FM261900 24004KT P6SM VCSH BKN050 BKN250
     FM270200 00000KT P6SM SCT050 BKN120
     FM270600 00000KT 4SM BR SCT050 BKN120
      TEMPO 2708/2712 1SM BR=

USA.gov is the U.S. government's official web portal to all federal, state and local government web resources and services.